createdAt,value
2018-07-08T00:00:41.673Z,90.06
2018-07-08T00:01:41.430Z,90.21
2018-07-08T00:02:41.687Z,90.16
2018-07-08T00:03:41.429Z,90.12
2018-07-08T00:04:41.431Z,90.12
2018-07-08T00:05:41.433Z,90.21
2018-07-08T00:06:41.699Z,90.21
2018-07-08T00:07:41.685Z,90.59
2018-07-08T00:08:41.685Z,90.69
2018-07-08T00:09:41.688Z,91.08
2018-07-08T00:10:41.688Z,90.98
2018-07-08T00:11:41.438Z,90.98
2018-07-08T00:12:41.694Z,91.17
2018-07-08T00:13:41.448Z,91.36
2018-07-08T00:14:41.707Z,90.5
2018-07-08T00:15:41.444Z,89.54
2018-07-08T00:16:41.445Z,89.06
2018-07-08T00:17:41.441Z,89.25
2018-07-08T00:18:41.701Z,89.06
2018-07-08T00:19:41.709Z,89.25
2018-07-08T00:20:41.451Z,89.15
2018-07-08T00:21:41.480Z,89.06
2018-07-08T00:22:41.709Z,89.44
2018-07-08T00:23:41.709Z,89.54
2018-07-08T00:24:41.712Z,89.54
2018-07-08T00:25:41.713Z,89.88
2018-07-08T00:26:41.717Z,89.25
2018-07-08T00:27:41.729Z,89.3
2018-07-08T00:28:41.730Z,89.3
2018-07-08T00:29:41.722Z,89.4
2018-07-08T00:30:41.506Z,89.4
2018-07-08T00:31:41.469Z,89.4
2018-07-08T00:32:41.720Z,89.3
2018-07-08T00:33:41.738Z,89.21
2018-07-08T00:34:41.735Z,89.4
2018-07-08T00:35:41.768Z,89.69
2018-07-08T00:36:41.737Z,89.59
2018-07-08T00:37:41.473Z,89.88
2018-07-08T00:38:41.473Z,89.88
2018-07-08T00:39:41.751Z,89.98
2018-07-08T00:40:41.738Z,90.07
2018-07-08T00:41:41.736Z,90.6
2018-07-08T00:42:41.737Z,90.65
2018-07-08T00:43:41.487Z,91.03
2018-07-08T00:44:41.738Z,91.71
2018-07-08T00:45:42.693Z,91.71
2018-07-08T00:46:41.489Z,92.29
2018-07-08T00:47:41.751Z,92.38
2018-07-08T00:48:41.748Z,93.19
2018-07-08T00:49:41.491Z,93.34
2018-07-08T00:50:42.357Z,92.38
2018-07-08T00:51:41.744Z,92.29
2018-07-08T00:52:41.752Z,92.91
2018-07-08T00:53:41.747Z,92.19
2018-07-08T00:54:41.762Z,91.61
2018-07-08T00:55:41.828Z,92.43
2018-07-08T00:56:41.502Z,92.29
2018-07-08T00:57:41.773Z,92.29
2018-07-08T00:58:41.519Z,91.85
2018-07-08T00:59:41.764Z,92.14
2018-07-08T01:00:41.833Z,92.81
2018-07-08T01:01:41.882Z,92.81
2018-07-08T01:02:41.513Z,93.01
2018-07-08T01:03:41.771Z,93.58
2018-07-08T01:04:41.767Z,93.58
2018-07-08T01:05:41.834Z,93.96
2018-07-08T01:06:41.764Z,94.16
2018-07-08T01:07:41.530Z,94.06
2018-07-08T01:08:41.891Z,93.96
2018-07-08T01:09:41.769Z,93.77
2018-07-08T01:10:41.819Z,93.96
2018-07-08T01:11:41.769Z,93.58
2018-07-08T01:12:41.776Z,93.77
2018-07-08T01:13:41.781Z,94.26
2018-07-08T01:14:41.787Z,94.16
2018-07-08T01:15:42.037Z,94.06
2018-07-08T01:16:41.778Z,94.16
2018-07-08T01:17:41.780Z,94.06
2018-07-08T01:18:41.784Z,94.16
2018-07-08T01:19:41.529Z,93.77
2018-07-08T01:20:41.828Z,93.87
2018-07-08T01:21:41.530Z,93.96
2018-07-08T01:22:41.530Z,94.64
2018-07-08T01:23:41.787Z,94.64
2018-07-08T01:24:41.787Z,94.45
2018-07-08T01:25:41.881Z,94.98
2018-07-08T01:26:41.793Z,94.78
2018-07-08T01:27:41.812Z,95.26
2018-07-08T01:28:41.551Z,95.45
2018-07-08T01:29:41.537Z,94.98
2018-07-08T01:30:41.827Z,95.26
2018-07-08T01:31:41.800Z,95.07
2018-07-08T01:32:41.796Z,95.84
2018-07-08T01:33:41.540Z,95.65
2018-07-08T01:34:41.796Z,94.78
2018-07-08T01:35:41.844Z,94.98
2018-07-08T01:36:41.799Z,95.07
2018-07-08T01:37:41.804Z,94.78
2018-07-08T01:38:41.799Z,94.78
2018-07-08T01:39:41.574Z,94.69
2018-07-08T01:40:41.834Z,95.36
2018-07-08T01:41:41.804Z,95.55
2018-07-08T01:42:41.806Z,95.36
2018-07-08T01:43:41.806Z,95.45
2018-07-08T01:44:41.819Z,95.45
2018-07-08T01:45:42.856Z,95.45
2018-07-08T01:46:41.810Z,96.03
2018-07-08T01:47:41.553Z,96.32
2018-07-08T01:48:41.822Z,96.8
2018-07-08T01:49:41.560Z,97.09
2018-07-08T01:50:41.858Z,97.09
2018-07-08T01:51:41.854Z,96.42
2018-07-08T01:52:41.574Z,96.7
2018-07-08T01:53:41.812Z,96.8
2018-07-08T01:54:41.563Z,96.32
2018-07-08T01:55:41.860Z,96.32
2018-07-08T01:56:41.826Z,95.55
2018-07-08T01:57:41.819Z,95.55
2018-07-08T01:58:41.843Z,95.55
2018-07-08T01:59:41.830Z,95.36
2018-07-08T02:00:41.879Z,96.03
2018-07-08T02:01:41.640Z,95.45
2018-07-08T02:02:41.571Z,95.26
2018-07-08T02:03:41.830Z,95.65
2018-07-08T02:04:41.829Z,95.45
2018-07-08T02:05:41.864Z,95.45
2018-07-08T02:06:41.833Z,94.78
2018-07-08T02:07:41.830Z,94.49
2018-07-08T02:08:41.834Z,94.49
2018-07-08T02:09:41.834Z,94.59
2018-07-08T02:10:41.599Z,94.49
2018-07-08T02:11:41.826Z,94.01
2018-07-08T02:12:41.576Z,93.92
2018-07-08T02:13:41.835Z,94.31
2018-07-08T02:14:41.579Z,94.11
2018-07-08T02:15:41.838Z,93.73
2018-07-08T02:16:41.843Z,94.01
2018-07-08T02:17:41.835Z,93.73
2018-07-08T02:18:41.842Z,93.63
2018-07-08T02:19:41.837Z,93.92
2018-07-08T02:20:41.852Z,94.21
2018-07-08T02:21:41.843Z,93.82
2018-07-08T02:22:41.858Z,93.73
2018-07-08T02:23:41.593Z,93.92
2018-07-08T02:24:41.843Z,94.01
2018-07-08T02:25:41.902Z,94.21
2018-07-08T02:26:41.850Z,94.31
2018-07-08T02:27:41.847Z,94.21
2018-07-08T02:28:41.843Z,95.7
2018-07-08T02:29:41.848Z,95.4
2018-07-08T02:30:41.673Z,96.08
2018-07-08T02:31:41.605Z,95.6
2018-07-08T02:32:41.850Z,95.31
2018-07-08T02:33:41.863Z,95.5
2018-07-08T02:34:41.860Z,95.7
2018-07-08T02:35:41.865Z,94.83
2018-07-08T02:36:41.861Z,94.93
2018-07-08T02:37:41.859Z,94.83
2018-07-08T02:38:41.877Z,94.54
2018-07-08T02:39:41.872Z,94.06
2018-07-08T02:40:41.945Z,93.96
2018-07-08T02:41:41.872Z,93.68
2018-07-08T02:42:41.880Z,93.87
2018-07-08T02:43:41.878Z,93.87
2018-07-08T02:44:41.868Z,93.96
2018-07-08T02:45:41.925Z,94.45
2018-07-08T02:46:41.900Z,93.68
2018-07-08T02:47:41.888Z,93.96
2018-07-08T02:48:41.618Z,93.68
2018-07-08T02:49:41.881Z,93.87
2018-07-08T02:50:41.899Z,93.96
2018-07-08T02:51:41.626Z,94.26
2018-07-08T02:52:41.871Z,93.96
2018-07-08T02:53:41.887Z,93.68
2018-07-08T02:54:41.879Z,93.68
2018-07-08T02:55:41.923Z,93.96
2018-07-08T02:56:41.876Z,93.77
2018-07-08T02:57:41.623Z,93.01
2018-07-08T02:58:41.886Z,93.24
2018-07-08T02:59:41.900Z,92.96
2018-07-08T03:00:41.629Z,93.77
2018-07-08T03:01:41.901Z,93.68
2018-07-08T03:02:41.889Z,93.96
2018-07-08T03:03:41.646Z,93.77
2018-07-08T03:04:41.887Z,94.16
2018-07-08T03:05:41.899Z,94.54
2018-07-08T03:06:41.964Z,94.64
2018-07-08T03:07:41.903Z,95.4
2018-07-08T03:08:41.898Z,95.89
2018-07-08T03:09:41.641Z,95.5
2018-07-08T03:10:41.896Z,96.17
2018-07-08T03:11:41.895Z,96.27
2018-07-08T03:12:41.649Z,96.27
2018-07-08T03:13:41.657Z,96.27
2018-07-08T03:14:41.644Z,96.66
2018-07-08T03:15:41.945Z,96.17
2018-07-08T03:16:42.954Z,96.37
2018-07-08T03:17:41.904Z,95.98
2018-07-08T03:18:41.907Z,96.47
2018-07-08T03:19:41.905Z,96.37
2018-07-08T03:20:41.733Z,96.17
2018-07-08T03:21:41.917Z,96.47
2018-07-08T03:22:41.910Z,97.04
2018-07-08T03:23:41.907Z,97.14
2018-07-08T03:24:41.655Z,97.04
2018-07-08T03:25:41.974Z,97.04
2018-07-08T03:26:42.715Z,97.04
2018-07-08T03:27:41.918Z,96.75
2018-07-08T03:28:41.909Z,96.75
2018-07-08T03:29:41.917Z,96.85
2018-07-08T03:30:41.942Z,97.52
2018-07-08T03:31:41.922Z,97.24
2018-07-08T03:32:41.915Z,97.14
2018-07-08T03:33:41.668Z,96.85
2018-07-08T03:34:41.668Z,97.33
2018-07-08T03:35:41.760Z,97.24
2018-07-08T03:36:41.670Z,97.33
2018-07-08T03:37:41.935Z,97.24
2018-07-08T03:38:41.929Z,97.33
2018-07-08T03:39:41.934Z,96.75
2018-07-08T03:40:41.991Z,97.33
2018-07-08T03:41:41.935Z,97.91
2018-07-08T03:42:41.678Z,97.81
2018-07-08T03:43:41.938Z,98.29
2018-07-08T03:44:41.940Z,98.29
2018-07-08T03:45:41.963Z,97.71
2018-07-08T03:46:41.682Z,98.48
2018-07-08T03:47:41.940Z,98.29
2018-07-08T03:48:41.688Z,98
2018-07-08T03:49:41.943Z,98.48
2018-07-08T03:50:42.033Z,98
2018-07-08T03:51:41.733Z,98.58
2018-07-08T03:52:41.694Z,98.24
2018-07-08T03:53:41.690Z,97.86
2018-07-08T03:54:41.943Z,97.86
2018-07-08T03:55:41.985Z,98.14
2018-07-08T03:56:41.947Z,97.71
2018-07-08T03:57:41.951Z,97.86
2018-07-08T03:58:41.698Z,97.57
2018-07-08T03:59:41.957Z,97.81
2018-07-08T04:00:42.019Z,98
2018-07-08T04:01:41.722Z,97.33
2018-07-08T04:02:41.708Z,97.33
2018-07-08T04:03:41.718Z,97.52
2018-07-08T04:04:41.955Z,97.14
2018-07-08T04:05:41.976Z,96.37
2018-07-08T04:06:41.961Z,96.85
2018-07-08T04:07:41.983Z,96.37
2018-07-08T04:08:41.713Z,95.79
2018-07-08T04:09:41.721Z,95.5
2018-07-08T04:10:41.808Z,95.03
2018-07-08T04:11:41.973Z,94.54
2018-07-08T04:12:41.722Z,94.64
2018-07-08T04:13:41.977Z,94.83
2018-07-08T04:14:41.970Z,94.73
2018-07-08T04:15:41.801Z,94.54
2018-07-08T04:16:41.995Z,94.54
2018-07-08T04:17:41.978Z,94.35
2018-07-08T04:18:41.974Z,94.45
2018-07-08T04:19:41.978Z,94.83
2018-07-08T04:20:41.772Z,94.83
2018-07-08T04:21:41.978Z,94.64
2018-07-08T04:22:41.731Z,94.26
2018-07-08T04:23:41.993Z,94.26
2018-07-08T04:24:41.990Z,93.82
2018-07-08T04:25:41.982Z,93.34
2018-07-08T04:26:41.982Z,93.44
2018-07-08T04:27:41.984Z,92.96
2018-07-08T04:28:41.734Z,92.61
2018-07-08T04:29:41.742Z,91.94
2018-07-08T04:30:41.737Z,90.26
2018-07-08T04:31:41.742Z,89.01
2018-07-08T04:32:42.004Z,87.7
2018-07-08T04:33:41.995Z,86.74
2018-07-08T04:34:41.748Z,85.43
2018-07-08T04:35:42.008Z,84.38
2018-07-08T04:36:41.751Z,83.55
2018-07-08T04:37:42.005Z,82.59
2018-07-08T04:38:41.776Z,81.09
2018-07-08T04:39:41.768Z,80.99
2018-07-08T04:40:42.042Z,80.89
2018-07-08T04:41:42.029Z,82.39
2018-07-08T04:42:41.768Z,83.74
2018-07-08T04:43:42.028Z,83.45
2018-07-08T04:44:42.027Z,84.22
2018-07-08T04:45:42.081Z,84.32
2018-07-08T04:46:41.780Z,84.03
2018-07-08T04:47:42.033Z,84.22
2018-07-08T04:48:42.042Z,83.26
2018-07-08T04:49:42.040Z,81.66
2018-07-08T04:50:42.113Z,80.69
2018-07-08T04:51:42.058Z,79.19
2018-07-08T04:52:41.801Z,79
2018-07-08T04:53:41.852Z,78.81
2018-07-08T04:54:42.066Z,78.42
2018-07-08T04:55:42.107Z,78.23
2018-07-08T04:56:41.897Z,78.71
2018-07-08T04:57:42.161Z,79.1
2018-07-08T04:58:41.833Z,79.29
2018-07-08T04:59:41.825Z,79.44
2018-07-08T05:00:41.845Z,80.41
2018-07-08T05:01:41.828Z,80.51
2018-07-08T05:02:42.083Z,79.74
2018-07-08T05:03:42.091Z,79.44
2018-07-08T05:04:42.106Z,80.56
2018-07-08T05:05:42.195Z,81.52
2018-07-08T05:06:42.101Z,82.01
2018-07-08T05:07:42.101Z,80.76
2018-07-08T05:08:41.852Z,79.98
2018-07-08T05:09:41.874Z,79.69
2018-07-08T05:10:42.178Z,78.25
2018-07-08T05:11:41.872Z,77.96
2018-07-08T05:12:42.137Z,77.38
2018-07-08T05:13:42.122Z,76.61
2018-07-08T05:14:42.119Z,75.84
2018-07-08T05:15:42.129Z,74.88
2018-07-08T05:16:42.151Z,72.08
2018-07-08T05:17:42.148Z,71.34
2018-07-08T05:18:42.142Z,71.44
2018-07-08T05:19:42.153Z,70.38
2018-07-08T05:20:41.930Z,70.48
2018-07-08T05:21:41.892Z,70.28
2018-07-08T05:22:42.149Z,69.03
2018-07-08T05:23:41.896Z,68.26
2018-07-08T05:24:42.163Z,67.88
2018-07-08T05:25:42.165Z,67.58
2018-07-08T05:26:42.164Z,67.2
2018-07-08T05:27:42.169Z,67.3
2018-07-08T05:28:41.978Z,67.2
2018-07-08T05:29:42.199Z,67.68
2018-07-08T05:30:42.003Z,66.52
2018-07-08T05:31:41.934Z,66.52
2018-07-08T05:32:41.929Z,67.36
2018-07-08T05:33:42.182Z,67.55
2018-07-08T05:34:41.937Z,68.04
2018-07-08T05:35:42.001Z,68.13
2018-07-08T05:36:42.349Z,67.65
2018-07-08T05:37:42.203Z,67.07
2018-07-08T05:38:41.942Z,67.55
2018-07-08T05:39:42.209Z,67.26
2018-07-08T05:40:42.015Z,67.16
2018-07-08T05:41:42.211Z,67.26
2018-07-08T05:42:42.210Z,67.36
2018-07-08T05:43:42.216Z,67.46
2018-07-08T05:44:41.970Z,67.26
2018-07-08T05:45:42.221Z,66.49
2018-07-08T05:46:42.226Z,66.69
2018-07-08T05:47:43.041Z,66.97
2018-07-08T05:48:42.236Z,66.69
2018-07-08T05:49:42.232Z,66.11
2018-07-08T05:50:42.395Z,66.2
2018-07-08T05:51:42.237Z,66.78
2018-07-08T05:52:42.000Z,66.3
2018-07-08T05:53:42.248Z,66.14
2018-07-08T05:54:41.999Z,66.39
2018-07-08T05:55:42.285Z,66.91
2018-07-08T05:56:42.250Z,66.72
2018-07-08T05:57:42.277Z,66.24
2018-07-08T05:58:42.260Z,66.14
2018-07-08T05:59:42.010Z,65.75
2018-07-08T06:00:42.061Z,64.63
2018-07-08T06:01:42.269Z,64.15
2018-07-08T06:02:42.273Z,63.47
2018-07-08T06:03:42.275Z,63.28
2018-07-08T06:04:42.523Z,62.34
2018-07-08T06:05:42.302Z,60.93
2018-07-08T06:06:42.043Z,59.99
2018-07-08T06:07:42.041Z,58.02
2018-07-08T06:08:42.044Z,54.88
2018-07-08T06:09:42.303Z,52.58
2018-07-08T06:10:42.080Z,51.25
2018-07-08T06:11:42.067Z,50.79
2018-07-08T06:12:42.313Z,51.18
2018-07-08T06:13:42.332Z,50.57
2018-07-08T06:14:42.333Z,50.02
2018-07-08T06:24:50.620Z,47.35
2018-07-08T06:25:50.909Z,45.55
2018-07-08T06:26:50.872Z,44.7
2018-07-08T06:27:50.873Z,43.46
2018-07-08T06:28:50.639Z,42.7
2018-07-08T06:29:50.632Z,42.72
2018-07-08T06:30:50.651Z,42.8
2018-07-08T06:31:50.675Z,43.19
2018-07-08T06:32:50.925Z,42.99
2018-07-08T06:33:50.901Z,42.63
2018-07-08T06:34:50.909Z,41.67
2018-07-08T06:35:50.919Z,41.28
2018-07-08T06:36:50.924Z,40.52
2018-07-08T06:37:50.930Z,41.67
2018-07-08T06:38:50.944Z,41.48
2018-07-08T06:39:50.721Z,41.85
2018-07-08T06:40:50.973Z,40.8
2018-07-08T06:41:50.708Z,40.89
2018-07-08T06:42:50.959Z,40.5
2018-07-08T06:43:50.740Z,39.82
2018-07-08T06:44:50.978Z,40.31
2018-07-08T06:45:50.735Z,41.09
2018-07-08T06:46:50.772Z,41.46
2018-07-08T06:47:50.789Z,42.87
2018-07-08T06:48:51.002Z,41.9
2018-07-08T06:49:51.026Z,42.19
2018-07-08T06:50:50.781Z,43.16
2018-07-08T06:51:50.792Z,43.26
2018-07-08T06:52:51.026Z,42.68
2018-07-08T06:53:50.787Z,43.36
2018-07-08T06:54:51.056Z,42.11
2018-07-08T06:55:50.833Z,41.46
2018-07-08T06:56:51.060Z,41.94
2018-07-08T06:57:51.240Z,41.34
2018-07-08T06:58:51.073Z,41.05
2018-07-08T06:59:50.848Z,40.39
2018-07-08T07:00:50.853Z,40.88
2018-07-08T07:01:50.858Z,39.62
2018-07-08T07:02:51.103Z,38.59
2018-07-08T07:03:51.111Z,37.35
2018-07-08T07:04:51.120Z,37.63
2018-07-08T07:05:51.130Z,37.54
2018-07-08T07:06:51.311Z,38.42
2018-07-08T07:07:51.227Z,37.93
2018-07-08T07:08:51.251Z,36.57
2018-07-08T07:09:51.159Z,36.86
2018-07-08T07:10:50.925Z,37.45
2018-07-08T07:11:51.178Z,36.76
2018-07-08T07:12:50.935Z,36.58
2018-07-08T07:13:51.193Z,37.73
2018-07-08T07:14:51.212Z,37.63
2018-07-08T07:15:50.971Z,37.62
2018-07-08T07:16:51.214Z,38.48
2018-07-08T07:17:51.225Z,39.22
2018-07-08T07:18:51.239Z,39.69
2018-07-08T07:19:51.246Z,39.88
2018-07-08T07:20:51.247Z,39.1
2018-07-08T07:21:51.266Z,38.23
2018-07-08T07:22:51.308Z,37.85
2018-07-08T07:23:51.018Z,37.46
2018-07-08T07:24:51.029Z,37.48
2018-07-08T07:25:51.284Z,37.19
2018-07-08T07:26:51.289Z,36.53
2018-07-08T07:27:51.047Z,36.53
2018-07-08T07:28:51.312Z,36.84
2018-07-08T07:29:51.094Z,36.82
2018-07-08T07:30:51.070Z,36.43
2018-07-08T07:31:51.332Z,36.14
2018-07-08T07:32:51.339Z,36.24
2018-07-08T07:33:51.349Z,35.38
2018-07-08T07:34:51.352Z,35.22
2018-07-08T07:35:51.359Z,33.87
2018-07-08T07:36:51.112Z,32.62
2018-07-08T07:37:51.399Z,32.32
2018-07-08T07:38:51.143Z,33.4
2018-07-08T07:39:51.141Z,33.67
2018-07-08T07:40:51.403Z,33.85
2018-07-08T07:41:51.407Z,33.58
2018-07-08T07:42:51.416Z,32.91
2018-07-08T07:43:51.172Z,31.45
2018-07-08T07:44:51.181Z,30.87
2018-07-08T07:45:51.494Z,31.54
2018-07-08T07:46:51.566Z,32.71
2018-07-08T07:47:51.459Z,33.28
2018-07-08T07:48:51.462Z,32.5
2018-07-08T07:49:51.474Z,33.28
2018-07-08T07:50:51.487Z,32.89
2018-07-08T07:51:51.498Z,33.48
2018-07-08T07:52:51.501Z,33.3
2018-07-08T07:53:51.538Z,33.69
2018-07-08T07:54:51.522Z,32.42
2018-07-08T07:55:51.569Z,31.07
2018-07-08T07:56:51.283Z,31.46
2018-07-08T07:57:51.537Z,31.9
2018-07-08T07:58:51.555Z,33.04
2018-07-08T07:59:51.325Z,34
2018-07-08T08:00:51.322Z,34
2018-07-08T08:01:51.325Z,34
2018-07-08T08:02:51.588Z,34.01
2018-07-08T08:03:51.593Z,33.34
2018-07-08T08:04:51.371Z,32.18
2018-07-08T08:05:51.610Z,32.39
2018-07-08T08:06:51.360Z,31.9
2018-07-08T08:07:51.390Z,32.03
2018-07-08T08:08:51.646Z,31.65
2018-07-08T08:09:51.392Z,30.4
2018-07-08T08:10:51.796Z,29.74
2018-07-08T08:11:51.416Z,29.07
2018-07-08T08:12:51.472Z,29.17
2018-07-08T08:13:51.722Z,28.49
2018-07-08T08:14:51.674Z,29.24
2018-07-08T08:15:51.705Z,30.59
2018-07-08T08:16:51.443Z,30.96
2018-07-08T08:17:51.705Z,31.74
2018-07-08T08:18:51.471Z,31.35
2018-07-08T08:19:51.753Z,30.68
2018-07-08T08:20:51.484Z,31.36
2018-07-08T08:21:51.482Z,31.45
2018-07-08T08:22:51.748Z,32.01
2018-07-08T08:23:51.499Z,32.4
2018-07-08T08:24:51.765Z,32.39
2018-07-08T08:25:51.519Z,32.39
2018-07-08T08:26:52.028Z,31.99
2018-07-08T08:27:51.822Z,31.51
2018-07-08T08:28:51.792Z,30.94
2018-07-08T08:29:51.554Z,31.33
2018-07-08T08:30:51.833Z,31.35
2018-07-08T08:31:51.564Z,30.55
2018-07-08T08:32:51.936Z,31.43
2018-07-08T08:33:51.842Z,31.6
2018-07-08T08:34:51.839Z,32.29
2018-07-08T08:35:51.857Z,31.6
2018-07-08T08:36:51.863Z,30.54
2018-07-08T08:37:51.625Z,30.37
2018-07-08T08:38:51.623Z,30.27
2018-07-08T08:39:51.885Z,30.19
2018-07-08T08:40:51.904Z,28.53
2018-07-08T08:41:51.655Z,28.13
2018-07-08T08:42:51.902Z,27.84
2018-07-08T08:43:51.663Z,27.84
2018-07-08T08:44:51.925Z,28.63
2018-07-08T08:45:52.004Z,28.42
2018-07-08T08:46:51.687Z,28.69
2018-07-08T08:47:51.953Z,30.05
2018-07-08T08:48:51.711Z,30.31
2018-07-08T08:49:51.981Z,30.41
2018-07-08T08:50:51.971Z,29.43
2018-07-08T08:51:51.729Z,28.58
2018-07-08T08:52:51.994Z,28.68
2018-07-08T08:53:52.000Z,28.68
2018-07-08T08:54:52.000Z,29.15
2018-07-08T08:55:52.019Z,30.51
2018-07-08T08:56:52.020Z,30.9
2018-07-08T08:57:52.021Z,29.83
2018-07-08T08:58:52.037Z,29.66
2018-07-08T08:59:51.787Z,28.59
2018-07-08T09:00:52.068Z,28.96
2018-07-08T09:01:52.069Z,31.09
2018-07-08T09:02:51.809Z,30.51
2018-07-08T09:03:52.202Z,32.26
2018-07-08T09:04:52.078Z,32.24
2018-07-08T09:05:52.087Z,33.09
2018-07-08T09:06:51.850Z,34.33
2018-07-08T09:07:52.107Z,35.39
2018-07-08T09:08:51.866Z,36.24
2018-07-08T09:09:52.133Z,38.85
2018-07-08T09:10:52.260Z,38.15
2018-07-08T09:11:51.892Z,38.54
2018-07-08T09:12:51.891Z,38.52
2018-07-08T09:13:51.890Z,38.44
2018-07-08T09:14:52.157Z,39.03
2018-07-08T09:15:51.927Z,40.09
2018-07-08T09:16:52.174Z,40.36
2018-07-08T09:17:52.194Z,40.17
2018-07-08T09:18:52.213Z,40.54
2018-07-08T09:19:52.198Z,41.31
2018-07-08T09:20:52.210Z,41.61
2018-07-08T09:21:52.194Z,39.98
2018-07-08T09:22:51.965Z,40.36
2018-07-08T09:23:52.530Z,39.7
2018-07-08T09:24:53.862Z,37.76
2018-07-08T09:25:52.236Z,37.47
2018-07-08T09:26:51.991Z,37.66
2018-07-08T09:27:52.243Z,38.42
2018-07-08T09:28:52.268Z,39.11
2018-07-08T09:29:52.005Z,38.81
2018-07-08T09:30:52.252Z,38.23
2018-07-08T09:31:52.254Z,38.81
2018-07-08T09:32:52.278Z,38.79
2018-07-08T09:33:52.282Z,39.67
2018-07-08T09:34:52.023Z,40.05
2018-07-08T09:35:52.281Z,39.67
2018-07-08T09:36:52.291Z,40.92
2018-07-08T09:37:52.057Z,41.02
2018-07-08T09:38:52.577Z,41.1
2018-07-08T09:39:52.071Z,41.97
2018-07-08T09:40:52.315Z,42.55
2018-07-08T09:41:52.331Z,41.68
2018-07-08T09:42:52.065Z,41.78
2018-07-08T09:43:52.322Z,41.49
2018-07-08T09:44:52.325Z,42.17
2018-07-08T09:45:52.393Z,41.68
2018-07-08T09:46:52.339Z,41.1
2018-07-08T09:47:52.358Z,41
2018-07-08T09:48:52.358Z,40.92
2018-07-08T09:49:52.360Z,40.73
2018-07-08T09:50:52.361Z,40.54
2018-07-08T09:51:52.106Z,40.15
2018-07-08T09:52:52.361Z,40.95
2018-07-08T09:53:52.369Z,40.77
2018-07-08T09:54:52.376Z,41.36
2018-07-08T09:55:52.126Z,40.48
2018-07-08T09:56:52.124Z,40.11
2018-07-08T09:57:52.417Z,39.72
2018-07-08T09:58:52.406Z,39.41
2018-07-08T09:59:52.148Z,39.9
2018-07-08T10:00:52.410Z,40.09
2018-07-08T10:01:52.424Z,40.39
2018-07-08T10:02:52.430Z,40.17
2018-07-08T10:03:52.412Z,40.26
2018-07-08T10:04:52.583Z,40.75
2018-07-08T10:05:52.430Z,40.95
2018-07-08T10:06:52.433Z,41.12
2018-07-08T10:07:52.483Z,41.02
2018-07-08T10:08:52.568Z,41.41
2018-07-08T10:09:52.460Z,40.83
2018-07-08T10:10:52.541Z,41.02
2018-07-08T10:11:52.507Z,41.05
2018-07-08T10:12:52.212Z,41.05
2018-07-08T10:13:52.692Z,40.85
2018-07-08T10:14:52.517Z,40.83
2018-07-08T10:15:52.481Z,39.98
2018-07-08T10:16:52.484Z,40.26
2018-07-08T10:17:52.761Z,39.98
2018-07-08T10:18:52.544Z,40.36
2018-07-08T10:19:52.928Z,40.05
2018-07-08T10:20:52.498Z,39.86
2018-07-08T10:21:52.508Z,40.05
2018-07-08T10:22:52.525Z,40.15
2018-07-08T10:54:07.342Z,41.58
2018-07-08T10:55:07.340Z,41.12
2018-07-08T10:56:07.582Z,41.02
2018-07-08T10:57:07.585Z,41.31
2018-07-08T10:58:07.579Z,41.02
2018-07-08T10:59:07.335Z,41.8
2018-07-08T11:00:07.342Z,41.88
2018-07-08T11:01:07.585Z,42.36
2018-07-08T11:02:07.335Z,41.78
2018-07-08T11:03:07.610Z,41.61
2018-07-08T11:04:07.365Z,40.73
2018-07-08T11:05:07.606Z,40.64
2018-07-08T11:06:07.369Z,40.15
2018-07-08T11:07:07.455Z,40.25
2018-07-08T11:08:07.825Z,40.05
2018-07-08T11:09:07.761Z,40.44
2018-07-08T11:10:07.375Z,40.05
2018-07-08T11:11:07.395Z,40.34
2018-07-08T11:12:07.628Z,40.25
2018-07-08T11:13:07.394Z,40.44
2018-07-08T11:14:08.183Z,40.44
2018-07-08T11:15:07.401Z,40.83
2018-07-08T11:16:07.417Z,40.54
2018-07-08T11:17:07.415Z,40.36
2018-07-08T11:18:07.406Z,40.26
2018-07-08T11:19:07.693Z,40.46
2018-07-08T11:20:07.670Z,40.46
2018-07-08T11:21:07.704Z,40.17
2018-07-08T11:22:07.672Z,40.46
2018-07-08T11:23:07.703Z,41.24
2018-07-08T11:24:07.465Z,40.95
2018-07-08T11:25:07.685Z,40.66
2018-07-08T11:26:07.686Z,40.85
2018-07-08T11:27:07.498Z,40.85
2018-07-08T11:28:07.700Z,41.05
2018-07-08T11:29:07.466Z,40
2018-07-08T11:30:07.460Z,40
2018-07-08T11:31:07.716Z,39.98
2018-07-08T11:32:07.490Z,40
2018-07-08T11:33:07.749Z,40.39
2018-07-08T11:34:07.730Z,40.19
2018-07-08T11:35:07.739Z,41.14
2018-07-08T11:36:07.506Z,40.95
2018-07-08T11:37:07.757Z,40.95
2018-07-08T11:38:07.513Z,41.14
2018-07-08T11:39:07.760Z,41.36
2018-07-08T11:40:07.776Z,40.09
2018-07-08T11:41:07.771Z,39.92
2018-07-08T11:42:07.772Z,41.08
2018-07-08T11:43:07.622Z,43.59
2018-07-08T11:44:07.535Z,41.45
2018-07-08T11:45:07.798Z,39.9
2018-07-08T11:46:07.875Z,39.82
2018-07-08T11:47:07.869Z,39.82
2018-07-08T11:48:07.792Z,39.62
2018-07-08T11:49:07.798Z,39.24
2018-07-08T11:50:07.554Z,38.95
2018-07-08T11:51:07.568Z,38.56
2018-07-08T11:52:07.818Z,39.14
2018-07-08T11:53:07.833Z,38.56
2018-07-08T11:54:07.602Z,38.27
2018-07-08T11:55:07.624Z,38.65
2018-07-08T11:56:07.582Z,38.85
2018-07-08T11:57:07.837Z,38.65
2018-07-08T11:58:07.592Z,38.73
2018-07-08T11:59:07.608Z,39.03
2018-07-08T12:00:07.618Z,38.25
2018-07-08T12:01:07.868Z,38.93
2018-07-08T12:02:07.617Z,38.83
2018-07-08T12:03:07.638Z,39.03
2018-07-08T12:04:07.621Z,38.54
2018-07-08T12:05:07.947Z,39.43
2018-07-08T12:06:07.888Z,39.82
2018-07-08T12:07:07.974Z,38.75
2018-07-08T12:08:07.951Z,38.64
2018-07-08T12:09:07.900Z,39.03
2018-07-08T12:10:07.667Z,39.53
2018-07-08T12:11:07.903Z,39.03
2018-07-08T12:12:07.674Z,38.73
2018-07-08T12:13:07.931Z,39.22
2018-07-08T12:14:07.688Z,39.41
2018-07-08T12:15:07.934Z,39.51
2018-07-08T12:16:07.744Z,39.61
2018-07-08T12:17:07.703Z,39.41
2018-07-08T12:18:07.989Z,39.9
2018-07-08T12:19:08.028Z,39.8
2018-07-08T12:20:07.961Z,39.22
2018-07-08T12:21:07.779Z,39.03
2018-07-08T12:22:08.017Z,38.27
2018-07-08T12:23:07.968Z,38.37
2018-07-08T12:24:10.973Z,38.65
2018-07-08T12:25:07.986Z,38.27
2018-07-08T12:26:07.985Z,38.19
2018-07-08T12:27:08.013Z,38.39
2018-07-08T12:28:07.741Z,37.99
2018-07-08T12:29:07.750Z,38.09
2018-07-08T12:30:07.750Z,38.77
2018-07-08T12:31:07.767Z,38.87
2018-07-08T12:32:08.012Z,37.8
2018-07-08T12:33:07.794Z,37.7
2018-07-08T12:34:08.036Z,38.27
2018-07-08T12:35:07.778Z,37.78
2018-07-08T12:36:08.033Z,37.68
2018-07-08T12:37:08.063Z,37.51
2018-07-08T12:38:07.798Z,37.32
2018-07-08T12:39:08.073Z,37.51
2018-07-08T12:40:07.812Z,37.9
2018-07-08T12:41:07.811Z,37.99
2018-07-08T12:42:07.825Z,37.99
2018-07-08T12:43:08.072Z,38.67
2018-07-08T12:44:07.843Z,38.48
2018-07-08T12:45:07.841Z,37.8
2018-07-08T12:46:08.096Z,37.8
2018-07-08T12:47:08.091Z,38.37
2018-07-08T12:48:07.844Z,38.27
2018-07-08T12:49:07.851Z,38.65
2018-07-08T12:50:08.106Z,38.65
2018-07-08T12:51:07.869Z,38.65
2018-07-08T12:52:08.120Z,37.32
2018-07-08T12:53:08.125Z,37.7
2018-07-08T12:54:07.873Z,36.83
2018-07-08T12:55:08.139Z,37.41
2018-07-08T12:56:08.137Z,36.85
2018-07-08T12:57:08.145Z,36.36
2018-07-08T12:58:08.153Z,36.36
2018-07-08T12:59:08.323Z,35.5
2018-07-08T13:00:07.914Z,35.89
2018-07-08T13:01:07.916Z,35.99
2018-07-08T13:02:07.918Z,35.41
2018-07-08T13:03:08.190Z,35.97
2018-07-08T13:04:08.187Z,36.36
2018-07-08T13:05:08.197Z,36.75
2018-07-08T13:06:08.188Z,36.65
2018-07-08T13:07:07.938Z,36.36
2018-07-08T13:08:07.943Z,35.97
2018-07-08T13:09:08.207Z,36.83
2018-07-08T13:10:07.952Z,37.39
2018-07-08T13:11:08.234Z,37.49
2018-07-08T13:12:08.230Z,37.59
2018-07-08T13:13:08.219Z,37.59
2018-07-08T13:14:08.242Z,37.1
2018-07-08T13:15:07.992Z,37.1
2018-07-08T13:16:08.237Z,37.1
2018-07-08T13:17:08.241Z,36.91
2018-07-08T13:18:08.270Z,36.73
2018-07-08T13:19:07.998Z,36.83
2018-07-08T13:20:08.009Z,36.44
2018-07-08T13:21:08.293Z,36.63
2018-07-08T13:22:08.270Z,36.93
2018-07-08T13:23:08.019Z,36.44
2018-07-08T13:24:08.281Z,36.65
2018-07-08T13:25:08.035Z,37.14
2018-07-08T13:26:08.298Z,37.32
2018-07-08T13:27:08.305Z,37.9
2018-07-08T13:28:08.309Z,37.51
2018-07-08T13:29:08.307Z,36.63
2018-07-08T13:30:08.315Z,36.05
2018-07-08T13:31:08.314Z,36.15
2018-07-08T13:32:08.374Z,36.24
2018-07-08T13:33:08.072Z,36.32
2018-07-08T13:34:08.078Z,35.84
2018-07-08T13:35:08.084Z,36.15